Point Reyes Station, CA

7:13 PM PDT on March 30, 2017 (GMT -0700)
Above Inverness Park | | Change Station
Active Advisory: Wind Advisory

Elev 280 ft 38.07 °N, 122.83 °W | Updated 5 seconds ago

Clear
Clear
51.8 °F
Feels Like 51.8 °F
N
4.0
Wind Variable Wind from West

Today
High -- | Low -- °F
--% Chance of Precip.
Yesterday
High -- | Low -- °F
Precip. -- in
Pressure 29.99 in
Visibility 9.0 miles
Clouds Clear
Dew Point 45 °F
Humidity 78%
Rainfall 0.00 in
Snow Depth Not available.
6:58 AM 7:32 PM
Waxing Crescent, 12% visible
METAR KAPC 310154Z 27005KT 9SM CLR 15/09 A3002 RMK AO2 SLP155 T01500089
Pressure 29.99 in
Visibility 9.0 miles
Clouds Clear
Dew Point 45 °F
Humidity 78%
Rainfall 0.00 in
Snow Depth Not available.
6:58 AM 7:32 PM
Waxing Crescent, 12% visible
METAR KAPC 310154Z 27005KT 9SM CLR 15/09 A3002 RMK AO2 SLP155 T01500089

Get Your Daily Forecast Email!

Thanks for signing up!

Be on the lookout for a verification email in your inbox.

You'll start receiving severe weather alerts in your inbox..

×

10-Day Weather Forecast

Almanac

Astronomy

Mar. 30, 2017 Rise Set
Actual Time
Civil Twilight
Nautical Twilight
Astronomical Twilight
Moon
Length of Visible Light
Length of Day
Tomorrow will be .
, % of the Moon is Illuminated

Today's Extremes

State Highs State Lows

Community

WunderPhotos

Upload Photos

1,962,540 photos uploaded!

WunderBlog® & News

Nearby

Air Quality

  Air Quality AQ Index Pollutant
Not available.

Snow Depth

Station Depth Elevation

Earthquake Activity

City Distance Mag. Time & Date
Minimum magnitude displayed is 2.5.

Earthquake Activity

City Distance Mag. Time & Date
Minimum magnitude displayed is 2.5.

Coastal Water Temperatures

Place Temperature

Stations

Nearby Weather Stations

Station Location Temp. Windchill Dew Point Humidity Wind Precip. Elev Updated Type
                   

Watches & Warnings

Wind Advisory
Issued: 12:41 PM PDT Mar. 30, 2017 – National Weather Service

... Wind Advisory remains in effect until 8 PM PDT this evening...

* timing... winds will increase by midday Thursday and remain
strong and gusty into Thursday evening. Strongest winds are
expected from mid afternoon through early evening Thursday.

* Winds... northwest winds of 20 to 30 mph are forecast along
with gusts up to 45 mph.

* Impacts... possible downed trees and limbs, blowing debris, and
local power outages.

Precautionary/preparedness actions...

A Wind Advisory means that wind gusts of at least 45 mph are
expected. Winds this strong can make driving difficult...
especially for high profile vehicles. Use extra caution.